Terminal Aerodrome Forecast
Issued by NWS Bismarck, ND

Home | Current Version | Previous Version | Graphics & Text | Print | Product List | Glossary On
Versions: 1 2 3 4 5 6 7 8 9 10 11 12 13 14 15 16 17 18 19 20 21 22 23 24
000
FTUS43 KBIS 210529
TAFBIS
TAF
KBIS 210529Z 2106/2206 02009KT P6SM BKN200
     FM211200 03005KT P6SM OVC130
     FM212100 07009KT P6SM BKN110
     FM220100 10009KT P6SM BKN045=

USA.gov is the U.S. government's official web portal to all federal, state and local government web resources and services.